Weather at Chicago O'Hare International Airport

Public forecast

Using degrees Fahrenheit for public forecast. Weather courtesy of forecast.io.

Current aviation weather report (METAR) for Chicago O'Hare International Airport

Retrieved 2021/09/28 15:51 UTC (54 minutes ago):

KORD 281551Z 08009KT 10SM FEW022 21/12 A3002 RMK AO2 SLP163 T02060117

Aviation forecast (TAF) for Chicago O'Hare International Airport

Retrieved 2021/09/28 12:22 UTC (4 hours ago):

TAF KORD 281120Z 2812/2918 04010KT P6SM SCT012 TEMPO 2812/2815 BKN012 FM281600 07008KT P6SM FEW300 FM291000 13005KT P6SM FEW300